Terminal Aerodrome Forecast
Issued by NWS

Home | Current Version | Previous Version | Text Only | Print | Product List | Glossary On
Versions: 1 2 3 4 5 6 7 8 9 10 11 12 13 14 15 16 17 18 19 20 21 22 23
955
FTUS43 KAPX 090539
TAFPLN
TAF
KPLN 090539Z 0906/1006 33012KT P6SM -SN OVC010
     FM090800 33012KT 3SM -SN BR OVC010
     FM091300 33012G22KT 1SM -SN OVC010
     FM091900 33014G24KT 2SM -SN OVC012
     FM100200 33010G18KT 3SM -SHSN OVC015=

USA.gov is the U.S. government's official web portal to all federal, state and local government web resources and services.